Chicago Bmc, Illinois
Current Conditions -  °F | °C
As of 8:51 AM on Sunday 21 Dec 2014 (Local Time) from KORD Reporting Station
Overcast Overcast  
Wind Chill: 24°   Ceiling: 3800
Heat Index: 33°   Visibility: 7mi
Dew Point: 27°   Wind: 12mph
Humidity: 78%   Direction: 170°S
Pressure: 30.19"   Gusts: NA
Location:  42.0275°N, 87.808°W
Report Text: KORD 211451Z 17010KT 7SM OVC038 01/M03 A3019 RMK AO2 SLP231 T00061028 58003
Loading
Personal Weather Stations






























Interactive Weather Map New forecast layout! Learn more

10-Day Weather Forecast

Advertisements
Track Severe Weather on mobile